createdAt,value
2022-11-25T00:01:34.340Z,9.85
2022-11-25T00:04:02.109Z,10.65
2022-11-25T00:06:35.707Z,11.13
2022-11-25T00:09:11.871Z,10.48
2022-11-25T00:11:42.894Z,11.93
2022-11-25T00:14:16.271Z,12.18
2022-11-25T00:16:47.975Z,11.95
2022-11-25T00:19:17.084Z,11.57
2022-11-25T00:21:44.344Z,11.30
2022-11-25T00:24:15.918Z,10.95
2022-11-25T00:26:43.417Z,10.77
2022-11-25T00:29:14.167Z,9.82
2022-11-25T00:31:42.153Z,10.13
2022-11-25T00:34:14.356Z,10.13
2022-11-25T00:36:42.111Z,10.10
2022-11-25T00:39:17.199Z,10.20
2022-11-25T00:42:05.326Z,10.57
2022-11-25T00:44:35.863Z,9.57
2022-11-25T00:47:17.212Z,10.45
2022-11-25T00:49:55.056Z,10.88
2022-11-25T00:52:27.064Z,9.90
2022-11-25T00:54:54.887Z,10.02
2022-11-25T00:57:24.176Z,11.07
2022-11-25T00:59:51.873Z,10.55
2022-11-25T01:02:22.479Z,9.55
2022-11-25T01:04:49.749Z,10.77
2022-11-25T01:07:18.314Z,10.63
2022-11-25T01:09:46.093Z,9.07
2022-11-25T01:12:14.946Z,9.80
2022-11-25T01:14:42.280Z,9.57
2022-11-25T01:17:09.458Z,9.07
2022-11-25T01:19:40.175Z,9.30
2022-11-25T01:22:09.138Z,10.60
2022-11-25T01:24:36.605Z,10.32
2022-11-25T01:27:04.095Z,10.15
2022-11-25T01:29:31.516Z,10.85
2022-11-25T01:31:58.778Z,10.77
2022-11-25T01:34:28.365Z,10.55
2022-11-25T01:36:58.085Z,10.77
2022-11-25T01:39:32.173Z,10.88
2022-11-25T01:42:02.806Z,10.27
2022-11-25T01:44:39.564Z,11.40
2022-11-25T01:47:23.475Z,10.98
2022-11-25T01:50:05.300Z,11.05
2022-11-25T01:52:40.783Z,11.43
2022-11-25T01:55:21.872Z,11.13
2022-11-25T01:58:02.909Z,11.55
2022-11-25T02:00:30.325Z,11.18
2022-11-25T02:02:59.078Z,11.35
2022-11-25T02:05:45.798Z,10.68
2022-11-25T02:08:15.437Z,10.50
2022-11-25T02:10:44.934Z,11.07
2022-11-25T02:13:12.521Z,12.13
2022-11-25T02:15:39.805Z,11.10
2022-11-25T02:18:07.643Z,10.98
2022-11-25T02:20:42.184Z,11.18
2022-11-25T02:23:20.112Z,11.20
2022-11-25T02:25:47.853Z,11.15
2022-11-25T02:28:23.730Z,11.38
2022-11-25T02:30:51.857Z,11.20
2022-11-25T02:33:20.675Z,12.38
2022-11-25T02:35:58.259Z,11.00
2022-11-25T02:39:07.288Z,10.40
2022-11-25T02:42:10.389Z,10.93
2022-11-25T02:44:37.802Z,10.82
2022-11-25T02:47:05.187Z,10.65
2022-11-25T02:49:32.554Z,10.50
2022-11-25T02:52:28.919Z,9.65
2022-11-25T02:54:56.605Z,9.63
2022-11-25T02:57:31.643Z,9.75
2022-11-25T02:59:59.832Z,9.88
2022-11-25T03:02:27.595Z,10.40
2022-11-25T03:04:55.008Z,10.57
2022-11-25T03:07:22.589Z,11.00
2022-11-25T03:10:14.843Z,11.48
2022-11-25T03:12:42.856Z,10.98
2022-11-25T03:15:11.525Z,10.45
2022-11-25T03:17:39.074Z,11.25
2022-11-25T03:20:08.402Z,10.10
2022-11-25T03:22:36.451Z,9.77
2022-11-25T03:25:06.072Z,9.77
2022-11-25T03:27:37.517Z,9.75
2022-11-25T03:30:11.069Z,11.27
2022-11-25T03:32:40.991Z,9.48
2022-11-25T03:35:09.639Z,11.27
2022-11-25T03:37:38.206Z,9.30
2022-11-25T03:40:11.313Z,10.27
2022-11-25T03:42:41.100Z,10.15
2022-11-25T03:45:15.978Z,10.40
2022-11-25T03:47:46.519Z,11.77
2022-11-25T03:50:16.866Z,11.70
2022-11-25T03:52:47.068Z,10.68
2022-11-25T03:55:16.731Z,11.05
2022-11-25T03:57:46.734Z,11.25
2022-11-25T04:00:22.701Z,11.77
2022-11-25T04:03:02.961Z,11.00
2022-11-25T04:05:32.839Z,10.38
2022-11-25T04:08:05.245Z,10.07
2022-11-25T04:10:34.331Z,9.98
2022-11-25T04:13:02.523Z,10.27
2022-11-25T04:15:36.599Z,11.60
2022-11-25T04:18:04.175Z,11.50
2022-11-25T04:20:33.514Z,10.25
2022-11-25T04:23:52.451Z,10.30
2022-11-25T04:26:21.601Z,10.38
2022-11-25T04:28:49.207Z,9.90
2022-11-25T04:31:16.682Z,10.18
2022-11-25T04:33:49.688Z,10.75
2022-11-25T04:36:20.120Z,9.65
2022-11-25T04:38:47.758Z,10.65
2022-11-25T04:41:21.309Z,9.60
2022-11-25T04:43:49.738Z,9.60
2022-11-25T04:46:23.051Z,9.85
2022-11-25T04:48:51.725Z,10.13
2022-11-25T04:51:20.331Z,9.85
2022-11-25T04:53:51.660Z,9.70
2022-11-25T04:56:20.544Z,8.90
2022-11-25T04:59:09.412Z,9.63
2022-11-25T05:01:40.867Z,9.48
2022-11-25T05:04:20.131Z,8.88
2022-11-25T05:06:47.654Z,9.88
2022-11-25T05:09:16.574Z,9.60
2022-11-25T05:11:46.075Z,10.00
2022-11-25T05:14:15.828Z,8.93
2022-11-25T05:16:43.420Z,10.25
2022-11-25T05:19:19.312Z,10.65
2022-11-25T05:21:47.058Z,9.57
2022-11-25T05:24:14.817Z,9.38
2022-11-25T05:26:43.579Z,9.80
2022-11-25T05:29:14.249Z,8.90
2022-11-25T05:31:44.808Z,9.57
2022-11-25T05:34:13.468Z,10.18
2022-11-25T05:36:40.864Z,9.10
2022-11-25T05:39:09.012Z,9.80
2022-11-25T05:41:56.724Z,9.25
2022-11-25T05:44:24.786Z,8.77
2022-11-25T05:46:54.908Z,8.55
2022-11-25T05:49:25.136Z,8.43
2022-11-25T05:51:52.490Z,9.10
2022-11-25T05:54:22.165Z,9.10
2022-11-25T05:56:49.688Z,9.15
2022-11-25T05:59:37.332Z,9.80
2022-11-25T06:02:16.146Z,9.52
2022-11-25T06:04:43.762Z,9.60
2022-11-25T06:07:11.421Z,10.25
2022-11-25T06:09:41.460Z,9.50
2022-11-25T06:12:09.000Z,9.90
2022-11-25T06:14:43.097Z,9.52
2022-11-25T06:17:10.684Z,9.07
2022-11-25T06:19:48.036Z,9.00
2022-11-25T06:22:16.210Z,9.70
2022-11-25T06:24:46.526Z,9.25
2022-11-25T06:27:19.057Z,9.82
2022-11-25T06:29:46.925Z,9.65
2022-11-25T06:32:14.648Z,9.00
2022-11-25T06:35:05.111Z,9.73
2022-11-25T06:37:43.581Z,9.68
2022-11-25T06:40:12.275Z,9.23
2022-11-25T06:42:43.599Z,9.65
2022-11-25T06:45:16.947Z,9.48
2022-11-25T06:47:52.004Z,10.65
2022-11-25T06:50:21.377Z,9.68
2022-11-25T06:52:54.309Z,10.40
2022-11-25T06:55:23.110Z,10.68
2022-11-25T06:58:13.650Z,10.80
2022-11-25T07:00:46.981Z,11.07
2022-11-25T07:03:18.985Z,11.13
2022-11-25T07:05:49.504Z,10.73
2022-11-25T07:08:28.355Z,10.88
2022-11-25T07:11:13.891Z,11.73
2022-11-25T07:13:48.184Z,12.23
2022-11-25T07:16:18.119Z,12.52
2022-11-25T07:18:52.580Z,12.68
2022-11-25T07:21:32.831Z,12.73
2022-11-25T07:24:07.781Z,12.80
2022-11-25T07:26:44.926Z,12.60
2022-11-25T07:29:50.096Z,13.15
2022-11-25T07:32:10.509Z,11.75
2022-11-25T07:34:42.370Z,12.15
2022-11-25T07:37:10.539Z,20.50
2022-11-25T07:39:44.784Z,13.38
2022-11-25T07:42:12.807Z,11.52
2022-11-25T07:44:40.496Z,10.60
2022-11-25T07:47:26.783Z,11.50
2022-11-25T07:49:57.617Z,10.80
2022-11-25T07:52:26.017Z,10.32
2022-11-25T07:54:54.622Z,10.32
2022-11-25T07:57:22.550Z,10.27
2022-11-25T07:59:50.728Z,10.88
2022-11-25T08:02:22.061Z,11.25
2022-11-25T08:04:50.556Z,10.00
2022-11-25T08:07:19.707Z,10.93
2022-11-25T08:09:50.958Z,10.75
2022-11-25T08:12:27.433Z,10.40
2022-11-25T08:14:58.862Z,10.38
2022-11-25T08:17:32.589Z,12.00
2022-11-25T08:20:01.103Z,11.68
2022-11-25T08:22:32.913Z,11.10
2022-11-25T08:25:27.182Z,11.55
2022-11-25T08:28:00.134Z,10.57
2022-11-25T08:30:28.401Z,10.73
2022-11-25T08:33:00.230Z,11.80
2022-11-25T08:35:28.494Z,12.05
2022-11-25T08:38:02.921Z,11.63
2022-11-25T08:40:31.289Z,12.18
2022-11-25T08:43:07.930Z,11.45
2022-11-25T08:45:42.864Z,10.98
2022-11-25T08:48:11.798Z,11.52
2022-11-25T08:50:39.922Z,11.43
2022-11-25T08:53:07.355Z,11.48
2022-11-25T08:55:37.065Z,11.32
2022-11-25T08:58:10.049Z,12.43
2022-11-25T09:00:38.591Z,12.32
2022-11-25T09:03:05.827Z,11.48
2022-11-25T09:05:37.304Z,11.93
2022-11-25T09:08:08.980Z,10.32
2022-11-25T09:10:39.761Z,10.55
2022-11-25T09:13:10.380Z,10.50
2022-11-25T09:15:39.095Z,10.77
2022-11-25T09:18:11.500Z,10.75
2022-11-25T09:20:41.358Z,10.38
2022-11-25T09:23:10.064Z,9.20
2022-11-25T09:25:37.496Z,8.32
2022-11-25T09:28:05.719Z,7.72
2022-11-25T09:30:33.392Z,7.93
2022-11-25T09:33:00.673Z,7.13
2022-11-25T09:35:27.972Z,6.38
2022-11-25T09:37:55.382Z,6.75
2022-11-25T09:40:53.476Z,6.35
2022-11-25T09:44:20.954Z,6.55
2022-11-25T09:47:29.399Z,6.60
2022-11-25T09:50:05.211Z,7.65
2022-11-25T09:53:17.389Z,8.38
2022-11-25T09:55:50.749Z,8.05
2022-11-25T09:58:45.658Z,7.13
2022-11-25T10:01:22.982Z,7.38
2022-11-25T10:04:03.100Z,6.90
2022-11-25T10:06:40.918Z,7.13
2022-11-25T10:09:20.285Z,7.40
2022-11-25T10:12:06.011Z,7.45
2022-11-25T10:14:49.910Z,7.90
2022-11-25T10:17:40.411Z,8.27
2022-11-25T10:20:30.072Z,7.43
2022-11-25T10:23:38.026Z,7.05
2022-11-25T10:26:21.645Z,6.55
2022-11-25T10:29:13.716Z,7.38
2022-11-25T10:31:44.798Z,7.10
2022-11-25T10:34:41.127Z,6.70
2022-11-25T10:37:34.319Z,6.70
2022-11-25T10:40:01.961Z,7.57
2022-11-25T10:42:29.854Z,6.55
2022-11-25T10:45:08.859Z,6.75
2022-11-25T10:48:08.001Z,7.15
2022-11-25T10:51:34.981Z,7.10
2022-11-25T10:54:28.150Z,7.38
2022-11-25T10:57:20.169Z,7.00
2022-11-25T11:00:00.592Z,7.10
2022-11-25T11:02:30.729Z,7.25
2022-11-25T11:05:10.247Z,7.10
2022-11-25T11:07:46.830Z,6.78
2022-11-25T11:10:27.166Z,6.35
2022-11-25T11:13:09.552Z,6.85
2022-11-25T11:15:42.807Z,6.70
2022-11-25T11:18:37.476Z,6.85
2022-11-25T11:21:22.270Z,6.78
2022-11-25T11:23:55.485Z,6.75
2022-11-25T11:26:36.292Z,6.68
2022-11-25T11:29:17.014Z,6.50
2022-11-25T11:31:58.742Z,6.70
2022-11-25T11:34:43.792Z,7.47
2022-11-25T11:37:42.933Z,7.00
2022-11-25T11:40:43.770Z,7.18
2022-11-25T11:44:07.051Z,7.00
2022-11-25T11:47:07.055Z,7.50
2022-11-25T11:49:54.769Z,7.00
2022-11-25T11:53:10.892Z,7.07
2022-11-25T11:56:11.932Z,7.53
2022-11-25T11:59:09.136Z,6.85
2022-11-25T12:02:13.083Z,6.93
2022-11-25T12:05:11.446Z,7.65
2022-11-25T12:07:53.831Z,8.73
2022-11-25T12:11:05.040Z,7.32
2022-11-25T12:14:01.123Z,7.40
2022-11-25T12:17:03.381Z,7.57
2022-11-25T12:19:41.690Z,7.82
2022-11-25T12:22:47.838Z,7.80
2022-11-25T12:25:24.054Z,7.95
2022-11-25T12:28:17.234Z,7.88
2022-11-25T12:31:04.728Z,7.85
2022-11-25T12:33:59.112Z,8.18
2022-11-25T12:36:39.711Z,7.65
2022-11-25T12:39:51.636Z,8.57
2022-11-25T12:42:26.289Z,7.68
2022-11-25T12:45:05.200Z,9.25
2022-11-25T12:47:33.131Z,8.32
2022-11-25T12:50:00.649Z,8.30
2022-11-25T12:52:52.721Z,7.82
2022-11-25T12:55:25.915Z,8.25
2022-11-25T12:58:32.913Z,9.07
2022-11-25T13:01:24.164Z,8.52
2022-11-25T13:04:37.289Z,9.23
2022-11-25T13:07:26.294Z,9.20
2022-11-25T13:10:34.304Z,9.38
2022-11-25T13:13:52.289Z,9.48
2022-11-25T13:16:22.160Z,8.80
2022-11-25T13:18:50.610Z,9.32
2022-11-25T13:21:19.939Z,7.75
2022-11-25T13:23:53.655Z,8.20
2022-11-25T13:26:31.912Z,8.07
2022-11-25T13:29:21.641Z,7.80
2022-11-25T13:32:33.769Z,8.13
2022-11-25T13:35:24.455Z,8.05
2022-11-25T13:37:52.659Z,8.35
2022-11-25T13:40:31.043Z,8.15
2022-11-25T13:43:00.460Z,7.93
2022-11-25T13:45:44.987Z,8.60
2022-11-25T13:48:22.413Z,7.95
2022-11-25T13:51:10.499Z,6.82
2022-11-25T13:53:39.996Z,7.28
2022-11-25T13:56:30.835Z,7.20
2022-11-25T13:59:10.332Z,6.07
2022-11-25T14:01:46.932Z,5.40
2022-11-25T14:04:16.371Z,5.20
2022-11-25T14:07:26.925Z,4.05
2022-11-25T14:10:28.069Z,3.70
2022-11-25T14:13:36.408Z,4.43
2022-11-25T14:17:04.545Z,3.85
2022-11-25T14:19:59.157Z,4.82
2022-11-25T14:22:35.792Z,5.40
2022-11-25T14:25:48.787Z,5.65
2022-11-25T14:28:47.542Z,5.03
2022-11-25T14:31:24.549Z,4.72
2022-11-25T14:33:58.675Z,5.43
2022-11-25T14:36:39.345Z,5.10
2022-11-25T14:39:20.805Z,6.50
2022-11-25T14:42:04.795Z,8.68
2022-11-25T14:44:59.282Z,11.43
2022-11-25T14:47:39.210Z,8.52
2022-11-25T14:53:10.485Z,7.20
2022-11-25T14:55:38.275Z,7.68
2022-11-25T14:58:05.592Z,7.07
2022-11-25T15:00:32.896Z,7.00
2022-11-25T15:03:06.753Z,7.30
2022-11-25T15:05:41.047Z,6.85
2022-11-25T15:08:08.296Z,5.97
2022-11-25T15:10:51.374Z,6.40
2022-11-25T15:13:34.532Z,5.90
2022-11-25T15:16:37.304Z,6.03
2022-11-25T15:19:18.764Z,6.07
2022-11-25T15:22:23.150Z,6.43
2022-11-25T15:24:57.671Z,6.10
2022-11-25T15:27:29.551Z,5.82
2022-11-25T15:30:00.415Z,6.05
2022-11-25T15:32:38.238Z,5.78
2022-11-25T15:35:08.941Z,5.40
2022-11-25T15:37:37.847Z,5.55
2022-11-25T15:40:44.081Z,5.72
2022-11-25T15:43:47.427Z,4.80
2022-11-25T15:46:23.591Z,4.68
2022-11-25T15:49:06.615Z,4.72
2022-11-25T15:55:20.178Z,4.55
2022-11-25T16:04:38.438Z,5.03
2022-11-25T16:07:24.117Z,5.00
2022-11-25T16:09:58.043Z,5.00
2022-11-25T16:12:28.195Z,5.80
2022-11-25T16:14:56.128Z,5.53
2022-11-25T16:17:23.828Z,5.90
2022-11-25T16:19:51.533Z,4.95
2022-11-25T16:22:20.776Z,4.50
2022-11-25T16:25:02.189Z,4.25
2022-11-25T16:27:31.452Z,30.65
2022-11-25T16:30:19.611Z,14.00
2022-11-25T16:32:56.883Z,5.68
2022-11-25T16:35:24.846Z,5.13
2022-11-25T16:37:58.280Z,5.43
2022-11-25T16:40:34.005Z,5.93
2022-11-25T16:43:02.048Z,5.95
2022-11-25T16:45:30.070Z,5.63
2022-11-25T16:47:57.416Z,7.25
2022-11-25T16:50:27.269Z,15.07
2022-11-25T16:52:55.145Z,19.00
2022-11-25T16:55:24.011Z,9.82
2022-11-25T16:57:54.463Z,12.07
2022-11-25T17:00:22.876Z,9.65
2022-11-25T17:02:56.489Z,9.15
2022-11-25T17:24:30.221Z,13.48
2022-11-25T17:27:34.240Z,13.32
2022-11-25T17:33:38.211Z,12.30
2022-11-25T17:36:06.232Z,12.45
2022-11-25T17:38:34.037Z,9.93
2022-11-25T17:41:17.937Z,11.07
2022-11-25T17:43:50.830Z,9.77
2022-11-25T17:46:18.750Z,10.02
2022-11-25T17:48:46.401Z,10.70
2022-11-25T17:51:15.291Z,9.90
2022-11-25T17:53:42.448Z,9.73
2022-11-25T17:56:28.895Z,9.25
2022-11-25T17:59:21.457Z,9.85
2022-11-25T18:02:31.138Z,8.70
2022-11-25T18:05:51.214Z,9.15
2022-11-25T18:08:22.495Z,9.45
2022-11-25T18:10:56.241Z,11.38
2022-11-25T18:13:47.634Z,12.85
2022-11-25T18:16:35.403Z,14.15
2022-11-25T18:19:31.390Z,14.55
2022-11-25T18:22:38.178Z,13.13
2022-11-25T18:25:57.112Z,12.60
2022-11-25T18:28:40.246Z,13.38
2022-11-25T18:31:59.261Z,11.40
2022-11-25T18:34:50.470Z,10.63
2022-11-25T18:37:46.740Z,11.63
2022-11-25T18:40:42.518Z,12.57
2022-11-25T18:43:35.297Z,11.57
2022-11-25T18:46:38.653Z,11.70
2022-11-25T18:49:56.225Z,12.55
2022-11-25T18:53:05.597Z,11.65
2022-11-25T18:56:01.287Z,11.27
2022-11-25T18:59:22.603Z,11.35
2022-11-25T19:02:18.993Z,11.95
2022-11-25T19:05:39.803Z,12.90
2022-11-25T19:08:53.352Z,11.88
2022-11-25T19:12:22.372Z,11.57
2022-11-25T19:15:28.974Z,10.85
2022-11-25T19:18:06.700Z,10.65
2022-11-25T19:21:20.263Z,10.65
2022-11-25T19:23:57.858Z,11.63
2022-11-25T19:26:31.171Z,10.98
2022-11-25T19:29:18.814Z,11.23
2022-11-25T19:32:07.866Z,11.48
2022-11-25T19:34:52.372Z,14.10
2022-11-25T19:37:32.121Z,13.82
2022-11-25T19:40:39.343Z,14.15
2022-11-25T19:43:19.208Z,14.38
2022-11-25T19:46:52.753Z,14.63
2022-11-25T19:49:31.324Z,14.27
2022-11-25T19:52:15.977Z,14.65
2022-11-25T19:54:46.830Z,14.57
2022-11-25T19:57:23.659Z,14.35
2022-11-25T19:59:51.510Z,14.43
2022-11-25T20:02:26.115Z,13.10
2022-11-25T20:04:59.386Z,14.15
2022-11-25T20:07:31.082Z,13.65
2022-11-25T20:10:18.736Z,14.18
2022-11-25T20:12:47.311Z,16.25
2022-11-25T20:15:21.126Z,16.13
2022-11-25T20:17:58.827Z,17.05
2022-11-25T20:20:33.241Z,16.10
2022-11-25T20:23:38.662Z,16.30
2022-11-25T20:26:36.390Z,15.10
2022-11-25T20:29:22.678Z,18.25
2022-11-25T20:31:56.083Z,16.52
2022-11-25T20:34:24.698Z,20.90
2022-11-25T20:36:52.167Z,16.42
2022-11-25T20:39:20.658Z,13.90
2022-11-25T20:41:51.892Z,14.50
2022-11-25T20:44:20.550Z,13.63
2022-11-25T20:46:48.766Z,12.18
2022-11-25T20:49:29.154Z,11.70
2022-11-25T20:51:57.665Z,11.25
2022-11-25T20:54:25.347Z,11.25
2022-11-25T20:56:57.648Z,12.20
2022-11-25T20:59:25.550Z,12.15
2022-11-25T21:01:54.670Z,11.90
2022-11-25T21:04:23.015Z,11.35
2022-11-25T21:07:17.979Z,13.55
2022-11-25T21:09:47.311Z,13.90
2022-11-25T21:12:19.279Z,14.07
2022-11-25T21:14:47.459Z,15.90
2022-11-25T21:17:18.561Z,13.45
2022-11-25T21:19:46.061Z,15.55
2022-11-25T21:22:20.972Z,14.57
2022-11-25T21:24:48.915Z,13.75
2022-11-25T21:27:19.899Z,12.50
2022-11-25T21:29:47.170Z,13.00
2022-11-25T21:32:27.801Z,12.20
2022-11-25T21:34:56.068Z,11.52
2022-11-25T21:37:33.447Z,12.15
2022-11-25T21:40:01.231Z,12.00
2022-11-25T21:42:32.414Z,13.05
2022-11-25T21:44:59.599Z,12.35
2022-11-25T21:47:30.300Z,13.38
2022-11-25T21:49:59.088Z,14.02
2022-11-25T21:52:26.389Z,12.38
2022-11-25T21:54:53.541Z,13.23
2022-11-25T21:57:29.453Z,11.85
2022-11-25T21:59:56.592Z,12.90
2022-11-25T22:02:27.819Z,11.77
2022-11-25T22:04:57.193Z,12.80
2022-11-25T22:07:30.408Z,12.93
2022-11-25T22:09:58.122Z,10.20
2022-11-25T22:12:30.723Z,10.38
2022-11-25T22:15:00.571Z,10.07
2022-11-25T22:17:29.863Z,9.55
2022-11-25T22:19:57.666Z,22.67
2022-11-25T22:22:24.979Z,22.88
2022-11-25T22:24:52.195Z,17.42
2022-11-25T22:27:36.302Z,20.33
2022-11-25T22:30:06.067Z,15.50
2022-11-25T22:32:33.413Z,11.18
2022-11-25T22:35:00.593Z,11.70
2022-11-25T22:37:27.770Z,10.35
2022-11-25T22:39:55.052Z,13.65
2022-11-25T22:42:31.108Z,12.40
2022-11-25T22:45:03.583Z,9.65
2022-11-25T22:47:45.593Z,10.52
2022-11-25T22:50:33.702Z,11.35
2022-11-25T22:53:02.018Z,10.35
2022-11-25T22:55:33.607Z,10.70
2022-11-25T22:58:04.532Z,10.82
2022-11-25T23:00:44.853Z,11.80
2022-11-25T23:03:25.734Z,11.50
2022-11-25T23:05:54.377Z,9.35
2022-11-25T23:08:29.331Z,9.18
2022-11-25T23:10:57.390Z,8.80
2022-11-25T23:13:29.416Z,9.45
2022-11-25T23:16:05.154Z,10.13
2022-11-25T23:18:44.068Z,9.02
2022-11-25T23:21:25.151Z,8.57
2022-11-25T23:23:52.556Z,8.18
2022-11-25T23:26:19.961Z,9.25
2022-11-25T23:28:47.525Z,8.65
2022-11-25T23:31:17.080Z,11.50
2022-11-25T23:33:50.650Z,10.23
2022-11-25T23:36:24.858Z,10.07
2022-11-25T23:39:03.769Z,9.77
2022-11-25T23:41:34.862Z,10.10
2022-11-25T23:44:16.283Z,9.68
2022-11-25T23:46:44.708Z,10.02
2022-11-25T23:49:30.440Z,10.70
2022-11-25T23:52:07.301Z,9.75
2022-11-25T23:54:44.591Z,10.80
2022-11-25T23:57:24.679Z,10.75
2022-11-25T23:59:52.664Z,10.82
